Terminal Aerodrome Forecast
Issued by NWS

Current Version | Previous Version | Text Only | Print | Product List | Glossary On
Versions: 1 2 3 4 5 6 7 8 9 10 11 12 13 14 15
000
FTUS42 TJSJ 302300
TAFJMZ
TAF
TJMZ 302338Z 3100/3124 06004KT P6SM -RA BKN030
     FM310130 06004KT P6SM SCT030
     FM311550 24009KT P6SM VCTS BKN030CB PROB30 3118/3121 4SM -TSRA
      BR BKN015CB
     FM312150 05004KT P6SM SCT030=

USA.gov is the U.S. government's official web portal to all federal, state and local government web resources and services.